sensor_id;sensor_type;location;lat;lon;timestamp;P1;durP1;ratioP1;P2;durP2;ratioP2
42200;SDS011;27869;51.442;7.540;2022-11-20T00:01:25;26.75;;;10.82;;
42200;SDS011;27869;51.442;7.540;2022-11-20T00:03:53;28.92;;;11.20;;
42200;SDS011;27869;51.442;7.540;2022-11-20T00:06:22;26.45;;;10.65;;
42200;SDS011;27869;51.442;7.540;2022-11-20T00:08:50;28.58;;;12.23;;
42200;SDS011;27869;51.442;7.540;2022-11-20T00:11:20;23.58;;;10.82;;
42200;SDS011;27869;51.442;7.540;2022-11-20T00:13:49;28.27;;;12.38;;
42200;SDS011;27869;51.442;7.540;2022-11-20T00:16:18;27.65;;;11.65;;
42200;SDS011;27869;51.442;7.540;2022-11-20T00:18:46;27.58;;;11.88;;
42200;SDS011;27869;51.442;7.540;2022-11-20T00:21:13;32.70;;;12.40;;
42200;SDS011;27869;51.442;7.540;2022-11-20T00:23:43;31.48;;;13.05;;
42200;SDS011;27869;51.442;7.540;2022-11-20T00:26:11;29.58;;;13.10;;
42200;SDS011;27869;51.442;7.540;2022-11-20T00:28:39;25.48;;;11.50;;
42200;SDS011;27869;51.442;7.540;2022-11-20T00:31:07;38.72;;;16.65;;
42200;SDS011;27869;51.442;7.540;2022-11-20T00:33:38;38.58;;;14.25;;
42200;SDS011;27869;51.442;7.540;2022-11-20T00:36:06;44.25;;;15.00;;
42200;SDS011;27869;51.442;7.540;2022-11-20T00:38:35;43.88;;;16.73;;
42200;SDS011;27869;51.442;7.540;2022-11-20T00:41:04;38.72;;;14.63;;
42200;SDS011;27869;51.442;7.540;2022-11-20T00:43:33;36.47;;;16.17;;
42200;SDS011;27869;51.442;7.540;2022-11-20T00:46:01;40.90;;;15.55;;
42200;SDS011;27869;51.442;7.540;2022-11-20T00:48:29;35.83;;;15.00;;
42200;SDS011;27869;51.442;7.540;2022-11-20T00:50:56;40.97;;;16.25;;
42200;SDS011;27869;51.442;7.540;2022-11-20T00:53:23;40.80;;;16.13;;
42200;SDS011;27869;51.442;7.540;2022-11-20T00:55:54;36.97;;;15.95;;
42200;SDS011;27869;51.442;7.540;2022-11-20T00:58:23;40.20;;;14.50;;
42200;SDS011;27869;51.442;7.540;2022-11-20T01:00:50;33.80;;;14.65;;
42200;SDS011;27869;51.442;7.540;2022-11-20T01:03:17;37.22;;;14.52;;
42200;SDS011;27869;51.442;7.540;2022-11-20T01:05:45;34.42;;;14.07;;
42200;SDS011;27869;51.442;7.540;2022-11-20T01:08:12;35.72;;;14.40;;
42200;SDS011;27869;51.442;7.540;2022-11-20T01:10:38;32.95;;;13.60;;
42200;SDS011;27869;51.442;7.540;2022-11-20T01:13:05;31.45;;;14.05;;
42200;SDS011;27869;51.442;7.540;2022-11-20T01:15:51;30.27;;;14.13;;
42200;SDS011;27869;51.442;7.540;2022-11-20T01:18:18;31.73;;;12.65;;
42200;SDS011;27869;51.442;7.540;2022-11-20T01:20:45;34.90;;;13.10;;
42200;SDS011;27869;51.442;7.540;2022-11-20T01:23:12;35.75;;;14.13;;
42200;SDS011;27869;51.442;7.540;2022-11-20T01:25:38;32.50;;;13.80;;
42200;SDS011;27869;51.442;7.540;2022-11-20T01:28:05;28.77;;;12.45;;
42200;SDS011;27869;51.442;7.540;2022-11-20T01:30:32;31.20;;;13.35;;
42200;SDS011;27869;51.442;7.540;2022-11-20T01:33:00;30.48;;;12.30;;
42200;SDS011;27869;51.442;7.540;2022-11-20T01:35:28;32.75;;;13.45;;
42200;SDS011;27869;51.442;7.540;2022-11-20T01:37:55;32.13;;;13.80;;
42200;SDS011;27869;51.442;7.540;2022-11-20T01:40:22;28.45;;;13.32;;
42200;SDS011;27869;51.442;7.540;2022-11-20T01:45:45;29.23;;;12.85;;
42200;SDS011;27869;51.442;7.540;2022-11-20T01:48:32;30.40;;;12.85;;
42200;SDS011;27869;51.442;7.540;2022-11-20T01:51:02;27.77;;;12.15;;
42200;SDS011;27869;51.442;7.540;2022-11-20T01:53:31;32.10;;;12.60;;
42200;SDS011;27869;51.442;7.540;2022-11-20T01:56:03;31.27;;;13.48;;
42200;SDS011;27869;51.442;7.540;2022-11-20T01:58:35;28.95;;;12.45;;
42200;SDS011;27869;51.442;7.540;2022-11-20T02:01:07;33.47;;;12.82;;
42200;SDS011;27869;51.442;7.540;2022-11-20T02:03:35;28.85;;;13.10;;
42200;SDS011;27869;51.442;7.540;2022-11-20T02:06:04;29.02;;;12.13;;
42200;SDS011;27869;51.442;7.540;2022-11-20T02:08:36;35.47;;;14.35;;
42200;SDS011;27869;51.442;7.540;2022-11-20T02:11:04;36.97;;;14.45;;
42200;SDS011;27869;51.442;7.540;2022-11-20T02:13:31;37.38;;;14.18;;
42200;SDS011;27869;51.442;7.540;2022-11-20T02:16:15;41.25;;;13.60;;
42200;SDS011;27869;51.442;7.540;2022-11-20T02:18:47;29.83;;;12.95;;
42200;SDS011;27869;51.442;7.540;2022-11-20T02:21:25;29.23;;;12.02;;
42200;SDS011;27869;51.442;7.540;2022-11-20T02:24:07;28.48;;;12.50;;
42200;SDS011;27869;51.442;7.540;2022-11-20T02:26:38;29.48;;;12.35;;
42200;SDS011;27869;51.442;7.540;2022-11-20T02:29:10;27.65;;;12.85;;
42200;SDS011;27869;51.442;7.540;2022-11-20T02:31:37;29.65;;;12.73;;
42200;SDS011;27869;51.442;7.540;2022-11-20T02:34:07;29.17;;;12.55;;
42200;SDS011;27869;51.442;7.540;2022-11-20T02:36:34;28.00;;;12.07;;
42200;SDS011;27869;51.442;7.540;2022-11-20T02:39:04;28.63;;;12.88;;
42200;SDS011;27869;51.442;7.540;2022-11-20T02:41:34;25.90;;;11.93;;
42200;SDS011;27869;51.442;7.540;2022-11-20T02:44:02;28.60;;;12.60;;
42200;SDS011;27869;51.442;7.540;2022-11-20T02:46:30;27.58;;;12.80;;
42200;SDS011;27869;51.442;7.540;2022-11-20T02:48:57;27.63;;;12.23;;
42200;SDS011;27869;51.442;7.540;2022-11-20T02:51:24;28.17;;;11.38;;
42200;SDS011;27869;51.442;7.540;2022-11-20T02:53:51;26.88;;;11.88;;
42200;SDS011;27869;51.442;7.540;2022-11-20T02:56:20;28.17;;;12.93;;
42200;SDS011;27869;51.442;7.540;2022-11-20T02:58:46;28.77;;;13.02;;
42200;SDS011;27869;51.442;7.540;2022-11-20T03:01:13;29.25;;;12.52;;
42200;SDS011;27869;51.442;7.540;2022-11-20T03:03:40;31.10;;;11.60;;
42200;SDS011;27869;51.442;7.540;2022-11-20T03:06:07;29.63;;;12.77;;
42200;SDS011;27869;51.442;7.540;2022-11-20T03:08:34;27.88;;;12.10;;
42200;SDS011;27869;51.442;7.540;2022-11-20T03:11:02;28.33;;;12.65;;
42200;SDS011;27869;51.442;7.540;2022-11-20T03:13:31;30.88;;;12.65;;
42200;SDS011;27869;51.442;7.540;2022-11-20T03:15:58;28.35;;;13.07;;
42200;SDS011;27869;51.442;7.540;2022-11-20T03:18:34;28.17;;;11.60;;
42200;SDS011;27869;51.442;7.540;2022-11-20T03:21:01;27.88;;;12.30;;
42200;SDS011;27869;51.442;7.540;2022-11-20T03:23:29;31.67;;;12.00;;
42200;SDS011;27869;51.442;7.540;2022-11-20T03:26:06;25.77;;;11.45;;
42200;SDS011;27869;51.442;7.540;2022-11-20T03:28:35;29.27;;;13.18;;
42200;SDS011;27869;51.442;7.540;2022-11-20T03:31:07;26.35;;;11.65;;
42200;SDS011;27869;51.442;7.540;2022-11-20T03:33:35;27.83;;;12.55;;
42200;SDS011;27869;51.442;7.540;2022-11-20T03:36:02;27.08;;;11.07;;
42200;SDS011;27869;51.442;7.540;2022-11-20T03:38:29;29.42;;;11.60;;
42200;SDS011;27869;51.442;7.540;2022-11-20T03:41:00;27.42;;;12.85;;
42200;SDS011;27869;51.442;7.540;2022-11-20T03:43:27;28.75;;;11.82;;
42200;SDS011;27869;51.442;7.540;2022-11-20T03:45:55;25.30;;;11.40;;
42200;SDS011;27869;51.442;7.540;2022-11-20T03:48:24;23.48;;;11.88;;
42200;SDS011;27869;51.442;7.540;2022-11-20T03:50:52;26.08;;;11.07;;
42200;SDS011;27869;51.442;7.540;2022-11-20T03:53:19;26.00;;;11.73;;
42200;SDS011;27869;51.442;7.540;2022-11-20T03:55:50;23.70;;;10.77;;
42200;SDS011;27869;51.442;7.540;2022-11-20T03:58:17;25.92;;;10.68;;
42200;SDS011;27869;51.442;7.540;2022-11-20T04:00:44;24.88;;;11.25;;
42200;SDS011;27869;51.442;7.540;2022-11-20T04:03:12;22.75;;;10.07;;
42200;SDS011;27869;51.442;7.540;2022-11-20T04:05:39;24.73;;;10.20;;
42200;SDS011;27869;51.442;7.540;2022-11-20T04:08:06;25.35;;;10.82;;
42200;SDS011;27869;51.442;7.540;2022-11-20T04:10:33;23.25;;;10.82;;
42200;SDS011;27869;51.442;7.540;2022-11-20T04:13:00;23.73;;;11.18;;
42200;SDS011;27869;51.442;7.540;2022-11-20T04:15:26;25.88;;;10.90;;
42200;SDS011;27869;51.442;7.540;2022-11-20T04:17:53;26.52;;;10.90;;
42200;SDS011;27869;51.442;7.540;2022-11-20T04:20:22;25.75;;;10.35;;
42200;SDS011;27869;51.442;7.540;2022-11-20T04:22:49;26.73;;;10.70;;
42200;SDS011;27869;51.442;7.540;2022-11-20T04:25:18;21.27;;;9.82;;
42200;SDS011;27869;51.442;7.540;2022-11-20T04:27:45;23.00;;;10.80;;
42200;SDS011;27869;51.442;7.540;2022-11-20T04:30:12;25.52;;;10.75;;
42200;SDS011;27869;51.442;7.540;2022-11-20T04:32:39;27.02;;;10.90;;
42200;SDS011;27869;51.442;7.540;2022-11-20T04:35:06;25.40;;;10.88;;
42200;SDS011;27869;51.442;7.540;2022-11-20T04:37:35;26.92;;;11.63;;
42200;SDS011;27869;51.442;7.540;2022-11-20T04:40:02;24.50;;;10.18;;
42200;SDS011;27869;51.442;7.540;2022-11-20T04:42:29;25.25;;;10.50;;
42200;SDS011;27869;51.442;7.540;2022-11-20T04:44:56;23.02;;;10.30;;
42200;SDS011;27869;51.442;7.540;2022-11-20T04:47:24;24.55;;;10.10;;
42200;SDS011;27869;51.442;7.540;2022-11-20T04:49:51;24.80;;;10.95;;
42200;SDS011;27869;51.442;7.540;2022-11-20T04:52:17;22.75;;;10.23;;
42200;SDS011;27869;51.442;7.540;2022-11-20T04:54:46;22.88;;;10.07;;
42200;SDS011;27869;51.442;7.540;2022-11-20T04:57:13;30.15;;;11.07;;
42200;SDS011;27869;51.442;7.540;2022-11-20T04:59:41;24.05;;;11.57;;
42200;SDS011;27869;51.442;7.540;2022-11-20T05:02:08;23.27;;;10.77;;
42200;SDS011;27869;51.442;7.540;2022-11-20T05:04:35;24.30;;;10.73;;
42200;SDS011;27869;51.442;7.540;2022-11-20T05:07:02;24.20;;;10.60;;
42200;SDS011;27869;51.442;7.540;2022-11-20T05:09:29;25.75;;;11.23;;
42200;SDS011;27869;51.442;7.540;2022-11-20T05:11:57;26.02;;;10.45;;
42200;SDS011;27869;51.442;7.540;2022-11-20T05:14:24;24.23;;;10.75;;
42200;SDS011;27869;51.442;7.540;2022-11-20T05:16:51;26.67;;;11.35;;
42200;SDS011;27869;51.442;7.540;2022-11-20T05:19:18;24.00;;;10.68;;
42200;SDS011;27869;51.442;7.540;2022-11-20T05:21:45;23.15;;;10.65;;
42200;SDS011;27869;51.442;7.540;2022-11-20T05:24:11;24.38;;;11.13;;
42200;SDS011;27869;51.442;7.540;2022-11-20T05:26:38;23.30;;;10.45;;
42200;SDS011;27869;51.442;7.540;2022-11-20T05:29:09;26.05;;;11.38;;
42200;SDS011;27869;51.442;7.540;2022-11-20T05:31:38;25.45;;;10.20;;
42200;SDS011;27869;51.442;7.540;2022-11-20T05:34:05;23.08;;;10.20;;
42200;SDS011;27869;51.442;7.540;2022-11-20T05:36:32;24.65;;;10.55;;
42200;SDS011;27869;51.442;7.540;2022-11-20T05:38:59;22.58;;;10.30;;
42200;SDS011;27869;51.442;7.540;2022-11-20T05:41:26;26.83;;;11.85;;
42200;SDS011;27869;51.442;7.540;2022-11-20T05:43:53;24.17;;;10.50;;
42200;SDS011;27869;51.442;7.540;2022-11-20T05:46:23;23.95;;;10.68;;
42200;SDS011;27869;51.442;7.540;2022-11-20T05:48:50;25.42;;;10.30;;
42200;SDS011;27869;51.442;7.540;2022-11-20T05:51:17;24.45;;;10.73;;
42200;SDS011;27869;51.442;7.540;2022-11-20T05:53:45;24.30;;;10.57;;
42200;SDS011;27869;51.442;7.540;2022-11-20T05:56:12;25.35;;;10.60;;
42200;SDS011;27869;51.442;7.540;2022-11-20T05:58:41;23.15;;;10.20;;
42200;SDS011;27869;51.442;7.540;2022-11-20T06:01:09;25.35;;;10.63;;
42200;SDS011;27869;51.442;7.540;2022-11-20T06:03:40;23.42;;;9.98;;
42200;SDS011;27869;51.442;7.540;2022-11-20T06:06:11;26.88;;;10.48;;
42200;SDS011;27869;51.442;7.540;2022-11-20T06:08:38;23.95;;;11.57;;
42200;SDS011;27869;51.442;7.540;2022-11-20T06:11:05;22.63;;;9.85;;
42200;SDS011;27869;51.442;7.540;2022-11-20T06:13:33;22.85;;;10.45;;
42200;SDS011;27869;51.442;7.540;2022-11-20T06:16:00;22.63;;;9.82;;
42200;SDS011;27869;51.442;7.540;2022-11-20T06:18:27;23.73;;;10.75;;
42200;SDS011;27869;51.442;7.540;2022-11-20T06:21:03;24.13;;;10.43;;
42200;SDS011;27869;51.442;7.540;2022-11-20T06:23:32;21.85;;;10.20;;
42200;SDS011;27869;51.442;7.540;2022-11-20T06:26:03;23.40;;;9.98;;
42200;SDS011;27869;51.442;7.540;2022-11-20T06:28:32;22.42;;;9.82;;
42200;SDS011;27869;51.442;7.540;2022-11-20T06:30:59;22.50;;;10.93;;
42200;SDS011;27869;51.442;7.540;2022-11-20T06:33:26;23.08;;;10.45;;
42200;SDS011;27869;51.442;7.540;2022-11-20T06:35:55;24.40;;;10.60;;
42200;SDS011;27869;51.442;7.540;2022-11-20T06:38:24;22.40;;;9.82;;
42200;SDS011;27869;51.442;7.540;2022-11-20T06:40:51;22.88;;;9.02;;
42200;SDS011;27869;51.442;7.540;2022-11-20T06:43:18;23.70;;;10.10;;
42200;SDS011;27869;51.442;7.540;2022-11-20T06:45:45;23.13;;;9.73;;
42200;SDS011;27869;51.442;7.540;2022-11-20T06:48:12;22.17;;;9.98;;
42200;SDS011;27869;51.442;7.540;2022-11-20T06:50:39;22.90;;;9.95;;
42200;SDS011;27869;51.442;7.540;2022-11-20T06:53:05;24.20;;;9.93;;
42200;SDS011;27869;51.442;7.540;2022-11-20T06:55:34;22.63;;;10.02;;
42200;SDS011;27869;51.442;7.540;2022-11-20T06:58:01;23.35;;;9.75;;
42200;SDS011;27869;51.442;7.540;2022-11-20T07:00:27;24.70;;;9.10;;
42200;SDS011;27869;51.442;7.540;2022-11-20T07:02:54;19.63;;;9.00;;
42200;SDS011;27869;51.442;7.540;2022-11-20T07:05:21;24.15;;;10.10;;
42200;SDS011;27869;51.442;7.540;2022-11-20T07:07:48;22.10;;;9.50;;
42200;SDS011;27869;51.442;7.540;2022-11-20T07:10:15;21.33;;;9.60;;
42200;SDS011;27869;51.442;7.540;2022-11-20T07:12:48;22.83;;;10.07;;
42200;SDS011;27869;51.442;7.540;2022-11-20T07:15:15;26.27;;;9.43;;
42200;SDS011;27869;51.442;7.540;2022-11-20T07:17:42;20.00;;;8.68;;
42200;SDS011;27869;51.442;7.540;2022-11-20T07:20:10;22.38;;;9.68;;
42200;SDS011;27869;51.442;7.540;2022-11-20T07:22:37;21.05;;;9.70;;
42200;SDS011;27869;51.442;7.540;2022-11-20T07:25:04;22.83;;;9.70;;
42200;SDS011;27869;51.442;7.540;2022-11-20T07:27:32;21.52;;;9.23;;
42200;SDS011;27869;51.442;7.540;2022-11-20T07:30:00;22.98;;;10.02;;
42200;SDS011;27869;51.442;7.540;2022-11-20T07:32:27;22.80;;;9.57;;
42200;SDS011;27869;51.442;7.540;2022-11-20T07:34:54;26.40;;;9.85;;
42200;SDS011;27869;51.442;7.540;2022-11-20T07:37:21;21.40;;;9.18;;
42200;SDS011;27869;51.442;7.540;2022-11-20T07:39:48;27.58;;;10.02;;
42200;SDS011;27869;51.442;7.540;2022-11-20T07:42:14;21.70;;;9.48;;
42200;SDS011;27869;51.442;7.540;2022-11-20T07:44:41;20.92;;;9.13;;
42200;SDS011;27869;51.442;7.540;2022-11-20T07:47:09;22.63;;;9.52;;
42200;SDS011;27869;51.442;7.540;2022-11-20T07:49:36;22.77;;;9.88;;
42200;SDS011;27869;51.442;7.540;2022-11-20T07:52:03;23.80;;;9.85;;
42200;SDS011;27869;51.442;7.540;2022-11-20T07:54:30;21.27;;;9.32;;
42200;SDS011;27869;51.442;7.540;2022-11-20T07:56:57;23.10;;;10.10;;
42200;SDS011;27869;51.442;7.540;2022-11-20T07:59:24;25.38;;;10.00;;
42200;SDS011;27869;51.442;7.540;2022-11-20T08:01:51;22.27;;;10.55;;
42200;SDS011;27869;51.442;7.540;2022-11-20T08:04:19;22.55;;;10.35;;
42200;SDS011;27869;51.442;7.540;2022-11-20T08:06:46;24.52;;;10.73;;
42200;SDS011;27869;51.442;7.540;2022-11-20T08:09:13;22.35;;;10.05;;
42200;SDS011;27869;51.442;7.540;2022-11-20T08:11:40;23.02;;;10.57;;
42200;SDS011;27869;51.442;7.540;2022-11-20T08:14:24;23.10;;;10.65;;
42200;SDS011;27869;51.442;7.540;2022-11-20T08:16:52;22.83;;;10.07;;
42200;SDS011;27869;51.442;7.540;2022-11-20T08:19:21;24.42;;;9.80;;
42200;SDS011;27869;51.442;7.540;2022-11-20T08:21:47;23.65;;;11.15;;
42200;SDS011;27869;51.442;7.540;2022-11-20T08:24:14;23.80;;;10.82;;
42200;SDS011;27869;51.442;7.540;2022-11-20T08:26:41;22.00;;;10.77;;
42200;SDS011;27869;51.442;7.540;2022-11-20T08:29:08;24.63;;;10.52;;
42200;SDS011;27869;51.442;7.540;2022-11-20T08:31:35;29.05;;;12.50;;
42200;SDS011;27869;51.442;7.540;2022-11-20T08:34:02;23.13;;;10.13;;
42200;SDS011;27869;51.442;7.540;2022-11-20T08:36:32;23.15;;;10.23;;
42200;SDS011;27869;51.442;7.540;2022-11-20T08:39:00;24.75;;;10.50;;
42200;SDS011;27869;51.442;7.540;2022-11-20T08:41:27;27.98;;;12.20;;
42200;SDS011;27869;51.442;7.540;2022-11-20T08:43:58;26.15;;;11.05;;
42200;SDS011;27869;51.442;7.540;2022-11-20T08:46:27;23.00;;;11.00;;
42200;SDS011;27869;51.442;7.540;2022-11-20T08:48:59;26.05;;;11.00;;
42200;SDS011;27869;51.442;7.540;2022-11-20T08:51:25;26.35;;;13.25;;
42200;SDS011;27869;51.442;7.540;2022-11-20T08:53:54;30.13;;;13.43;;
42200;SDS011;27869;51.442;7.540;2022-11-20T08:56:21;25.48;;;12.25;;
42200;SDS011;27869;51.442;7.540;2022-11-20T08:58:49;26.02;;;11.00;;
42200;SDS011;27869;51.442;7.540;2022-11-20T09:01:16;26.10;;;11.98;;
42200;SDS011;27869;51.442;7.540;2022-11-20T09:03:43;25.55;;;11.55;;
42200;SDS011;27869;51.442;7.540;2022-11-20T09:06:10;25.75;;;11.43;;
42200;SDS011;27869;51.442;7.540;2022-11-20T09:08:37;22.95;;;11.02;;
42200;SDS011;27869;51.442;7.540;2022-11-20T09:11:06;24.35;;;10.75;;
42200;SDS011;27869;51.442;7.540;2022-11-20T09:13:33;29.58;;;13.20;;
42200;SDS011;27869;51.442;7.540;2022-11-20T09:16:02;23.73;;;10.43;;
42200;SDS011;27869;51.442;7.540;2022-11-20T09:18:30;24.23;;;10.80;;
42200;SDS011;27869;51.442;7.540;2022-11-20T09:20:58;28.02;;;10.57;;
42200;SDS011;27869;51.442;7.540;2022-11-20T09:23:26;23.60;;;9.60;;
42200;SDS011;27869;51.442;7.540;2022-11-20T09:25:57;23.85;;;10.38;;
42200;SDS011;27869;51.442;7.540;2022-11-20T09:28:26;21.73;;;9.90;;
42200;SDS011;27869;51.442;7.540;2022-11-20T09:30:53;23.70;;;10.35;;
42200;SDS011;27869;51.442;7.540;2022-11-20T09:33:19;21.65;;;9.75;;
42200;SDS011;27869;51.442;7.540;2022-11-20T09:35:46;21.75;;;9.57;;
42200;SDS011;27869;51.442;7.540;2022-11-20T09:38:13;21.55;;;9.30;;
42200;SDS011;27869;51.442;7.540;2022-11-20T09:40:43;24.17;;;9.25;;
42200;SDS011;27869;51.442;7.540;2022-11-20T09:43:16;20.02;;;9.18;;
42200;SDS011;27869;51.442;7.540;2022-11-20T09:45:54;22.27;;;9.50;;
42200;SDS011;27869;51.442;7.540;2022-11-20T09:48:34;20.38;;;8.65;;
42200;SDS011;27869;51.442;7.540;2022-11-20T09:51:12;19.55;;;8.73;;
42200;SDS011;27869;51.442;7.540;2022-11-20T09:53:52;21.52;;;8.93;;
42200;SDS011;27869;51.442;7.540;2022-11-20T09:56:28;20.48;;;9.23;;
42200;SDS011;27869;51.442;7.540;2022-11-20T09:58:57;21.70;;;9.00;;
42200;SDS011;27869;51.442;7.540;2022-11-20T10:01:30;19.70;;;8.02;;
42200;SDS011;27869;51.442;7.540;2022-11-20T10:03:59;20.10;;;8.13;;
42200;SDS011;27869;51.442;7.540;2022-11-20T10:06:29;17.92;;;7.28;;
42200;SDS011;27869;51.442;7.540;2022-11-20T10:09:00;18.50;;;7.60;;
42200;SDS011;27869;51.442;7.540;2022-11-20T10:11:33;18.40;;;7.45;;
42200;SDS011;27869;51.442;7.540;2022-11-20T10:14:13;20.30;;;7.95;;
42200;SDS011;27869;51.442;7.540;2022-11-20T10:16:50;19.73;;;7.93;;
42200;SDS011;27869;51.442;7.540;2022-11-20T10:19:28;19.88;;;8.13;;
42200;SDS011;27869;51.442;7.540;2022-11-20T10:22:10;20.83;;;7.95;;
42200;SDS011;27869;51.442;7.540;2022-11-20T10:24:48;18.75;;;8.15;;
42200;SDS011;27869;51.442;7.540;2022-11-20T10:30:19;19.02;;;7.82;;
42200;SDS011;27869;51.442;7.540;2022-11-20T10:32:52;17.30;;;7.32;;
42200;SDS011;27869;51.442;7.540;2022-11-20T10:35:21;20.85;;;9.00;;
42200;SDS011;27869;51.442;7.540;2022-11-20T10:37:51;19.20;;;8.48;;
42200;SDS011;27869;51.442;7.540;2022-11-20T10:40:27;19.30;;;8.07;;
42200;SDS011;27869;51.442;7.540;2022-11-20T10:43:01;18.63;;;7.78;;
42200;SDS011;27869;51.442;7.540;2022-11-20T10:45:36;18.55;;;6.60;;
42200;SDS011;27869;51.442;7.540;2022-11-20T10:48:16;17.48;;;7.10;;
42200;SDS011;27869;51.442;7.540;2022-11-20T10:50:49;23.90;;;9.90;;
42200;SDS011;27869;51.442;7.540;2022-11-20T10:53:28;18.30;;;6.45;;
42200;SDS011;27869;51.442;7.540;2022-11-20T10:56:07;53.78;;;17.60;;
42200;SDS011;27869;51.442;7.540;2022-11-20T10:58:42;30.42;;;12.82;;
42200;SDS011;27869;51.442;7.540;2022-11-20T11:01:16;23.80;;;10.13;;
42200;SDS011;27869;51.442;7.540;2022-11-20T11:03:48;17.13;;;6.72;;
42200;SDS011;27869;51.442;7.540;2022-11-20T11:06:18;18.33;;;7.68;;
42200;SDS011;27869;51.442;7.540;2022-11-20T11:08:50;21.27;;;7.05;;
42200;SDS011;27869;51.442;7.540;2022-11-20T11:11:20;17.02;;;6.18;;
42200;SDS011;27869;51.442;7.540;2022-11-20T11:13:49;16.83;;;6.18;;
42200;SDS011;27869;51.442;7.540;2022-11-20T11:16:19;15.40;;;6.15;;
42200;SDS011;27869;51.442;7.540;2022-11-20T11:18:49;18.33;;;7.63;;
42200;SDS011;27869;51.442;7.540;2022-11-20T11:21:21;16.88;;;6.00;;
42200;SDS011;27869;51.442;7.540;2022-11-20T11:23:57;16.55;;;6.70;;
42200;SDS011;27869;51.442;7.540;2022-11-20T11:26:25;17.45;;;6.57;;
42200;SDS011;27869;51.442;7.540;2022-11-20T11:28:54;15.90;;;5.70;;
42200;SDS011;27869;51.442;7.540;2022-11-20T11:31:22;16.75;;;6.22;;
42200;SDS011;27869;51.442;7.540;2022-11-20T11:33:51;14.85;;;5.68;;
42200;SDS011;27869;51.442;7.540;2022-11-20T11:36:20;16.60;;;5.43;;
42200;SDS011;27869;51.442;7.540;2022-11-20T11:38:50;14.60;;;5.20;;
42200;SDS011;27869;51.442;7.540;2022-11-20T11:41:19;18.52;;;6.20;;
42200;SDS011;27869;51.442;7.540;2022-11-20T11:43:51;16.27;;;5.95;;
42200;SDS011;27869;51.442;7.540;2022-11-20T11:46:33;15.23;;;5.50;;
42200;SDS011;27869;51.442;7.540;2022-11-20T11:49:11;14.98;;;5.68;;
42200;SDS011;27869;51.442;7.540;2022-11-20T11:51:45;15.90;;;5.65;;
42200;SDS011;27869;51.442;7.540;2022-11-20T11:54:24;14.65;;;5.53;;
42200;SDS011;27869;51.442;7.540;2022-11-20T11:56:54;17.98;;;6.63;;
42200;SDS011;27869;51.442;7.540;2022-11-20T11:59:26;16.08;;;5.95;;
42200;SDS011;27869;51.442;7.540;2022-11-20T12:02:01;15.98;;;6.47;;
42200;SDS011;27869;51.442;7.540;2022-11-20T12:04:42;15.27;;;6.00;;
42200;SDS011;27869;51.442;7.540;2022-11-20T12:07:13;17.00;;;6.95;;
42200;SDS011;27869;51.442;7.540;2022-11-20T12:09:47;18.65;;;6.88;;
42200;SDS011;27869;51.442;7.540;2022-11-20T12:12:19;20.60;;;6.82;;
42200;SDS011;27869;51.442;7.540;2022-11-20T12:14:50;16.80;;;6.32;;
42200;SDS011;27869;51.442;7.540;2022-11-20T12:17:21;17.58;;;7.00;;
42200;SDS011;27869;51.442;7.540;2022-11-20T12:19:50;16.35;;;6.78;;
42200;SDS011;27869;51.442;7.540;2022-11-20T12:22:24;15.50;;;6.25;;
42200;SDS011;27869;51.442;7.540;2022-11-20T12:24:59;17.85;;;6.82;;
42200;SDS011;27869;51.442;7.540;2022-11-20T12:30:32;18.48;;;6.38;;
42200;SDS011;27869;51.442;7.540;2022-11-20T12:33:12;18.73;;;6.65;;
42200;SDS011;27869;51.442;7.540;2022-11-20T12:36:05;15.23;;;5.82;;
42200;SDS011;27869;51.442;7.540;2022-11-20T12:38:42;18.10;;;6.28;;
42200;SDS011;27869;51.442;7.540;2022-11-20T12:41:20;19.27;;;6.75;;
42200;SDS011;27869;51.442;7.540;2022-11-20T12:44:39;16.23;;;6.38;;
42200;SDS011;27869;51.442;7.540;2022-11-20T12:47:42;18.02;;;7.15;;
42200;SDS011;27869;51.442;7.540;2022-11-20T12:50:23;16.98;;;6.82;;
42200;SDS011;27869;51.442;7.540;2022-11-20T12:53:01;19.00;;;6.93;;
42200;SDS011;27869;51.442;7.540;2022-11-20T12:55:36;17.77;;;6.20;;
42200;SDS011;27869;51.442;7.540;2022-11-20T12:58:10;16.85;;;6.22;;
42200;SDS011;27869;51.442;7.540;2022-11-20T13:00:47;17.23;;;6.20;;
42200;SDS011;27869;51.442;7.540;2022-11-20T13:03:32;15.43;;;5.82;;
42200;SDS011;27869;51.442;7.540;2022-11-20T13:06:05;15.30;;;5.45;;
42200;SDS011;27869;51.442;7.540;2022-11-20T13:08:40;17.48;;;6.30;;
42200;SDS011;27869;51.442;7.540;2022-11-20T13:11:12;16.73;;;5.82;;
42200;SDS011;27869;51.442;7.540;2022-11-20T13:13:59;17.73;;;6.15;;
42200;SDS011;27869;51.442;7.540;2022-11-20T13:16:38;16.05;;;6.32;;
42200;SDS011;27869;51.442;7.540;2022-11-20T13:19:20;15.55;;;5.68;;
42200;SDS011;27869;51.442;7.540;2022-11-20T13:21:48;16.17;;;6.07;;
42200;SDS011;27869;51.442;7.540;2022-11-20T13:24:24;16.35;;;6.38;;
42200;SDS011;27869;51.442;7.540;2022-11-20T13:27:05;17.63;;;6.13;;
42200;SDS011;27869;51.442;7.540;2022-11-20T13:29:47;17.38;;;6.65;;
42200;SDS011;27869;51.442;7.540;2022-11-20T13:32:27;19.08;;;6.72;;
42200;SDS011;27869;51.442;7.540;2022-11-20T13:34:57;19.38;;;6.95;;
42200;SDS011;27869;51.442;7.540;2022-11-20T13:40:06;18.48;;;6.85;;
42200;SDS011;27869;51.442;7.540;2022-11-20T13:42:39;18.63;;;7.13;;
42200;SDS011;27869;51.442;7.540;2022-11-20T13:45:10;20.30;;;8.35;;
42200;SDS011;27869;51.442;7.540;2022-11-20T13:47:48;17.80;;;7.10;;
42200;SDS011;27869;51.442;7.540;2022-11-20T13:50:16;20.52;;;8.27;;
42200;SDS011;27869;51.442;7.540;2022-11-20T13:52:45;19.25;;;7.95;;
42200;SDS011;27869;51.442;7.540;2022-11-20T13:55:25;20.90;;;7.32;;
42200;SDS011;27869;51.442;7.540;2022-11-20T13:58:03;20.85;;;8.40;;
42200;SDS011;27869;51.442;7.540;2022-11-20T14:03:21;22.13;;;8.80;;
42200;SDS011;27869;51.442;7.540;2022-11-20T14:05:52;21.33;;;9.00;;
42200;SDS011;27869;51.442;7.540;2022-11-20T14:08:26;20.60;;;8.75;;
42200;SDS011;27869;51.442;7.540;2022-11-20T14:11:02;19.48;;;8.32;;
42200;SDS011;27869;51.442;7.540;2022-11-20T14:13:31;18.55;;;8.15;;
42200;SDS011;27869;51.442;7.540;2022-11-20T14:15:58;22.52;;;8.43;;
42200;SDS011;27869;51.442;7.540;2022-11-20T14:18:26;20.17;;;8.38;;
42200;SDS011;27869;51.442;7.540;2022-11-20T14:20:54;21.02;;;8.65;;
42200;SDS011;27869;51.442;7.540;2022-11-20T14:23:25;21.85;;;9.05;;
42200;SDS011;27869;51.442;7.540;2022-11-20T14:25:53;18.92;;;8.98;;
42200;SDS011;27869;51.442;7.540;2022-11-20T14:28:23;18.98;;;8.40;;
42200;SDS011;27869;51.442;7.540;2022-11-20T14:30:53;20.63;;;8.38;;
42200;SDS011;27869;51.442;7.540;2022-11-20T14:33:21;20.80;;;8.07;;
42200;SDS011;27869;51.442;7.540;2022-11-20T14:35:52;20.05;;;8.82;;
42200;SDS011;27869;51.442;7.540;2022-11-20T14:38:22;19.35;;;8.25;;
42200;SDS011;27869;51.442;7.540;2022-11-20T14:40:51;19.95;;;8.38;;
42200;SDS011;27869;51.442;7.540;2022-11-20T14:43:20;20.42;;;9.57;;
42200;SDS011;27869;51.442;7.540;2022-11-20T14:45:52;21.23;;;9.00;;
42200;SDS011;27869;51.442;7.540;2022-11-20T14:48:24;20.50;;;8.82;;
42200;SDS011;27869;51.442;7.540;2022-11-20T14:50:58;19.80;;;9.10;;
42200;SDS011;27869;51.442;7.540;2022-11-20T14:53:25;26.17;;;10.82;;
42200;SDS011;27869;51.442;7.540;2022-11-20T14:55:56;21.95;;;8.90;;
42200;SDS011;27869;51.442;7.540;2022-11-20T14:58:25;20.83;;;8.88;;
42200;SDS011;27869;51.442;7.540;2022-11-20T15:00:54;20.85;;;8.85;;